sensor_id;sensor_type;location;lat;lon;timestamp;P1;durP1;ratioP1;P2;durP2;ratioP2
78288;SDS011;67539;48.752;12.922;2023-04-25T00:02:09;4.40;;;4.00;;
78288;SDS011;67539;48.752;12.922;2023-04-25T00:04:37;4.63;;;4.33;;
78288;SDS011;67539;48.752;12.922;2023-04-25T00:07:06;5.07;;;4.67;;
78288;SDS011;67539;48.752;12.922;2023-04-25T00:09:34;8.23;;;4.70;;
78288;SDS011;67539;48.752;12.922;2023-04-25T00:12:03;3.90;;;3.60;;
78288;SDS011;67539;48.752;12.922;2023-04-25T00:14:32;4.17;;;3.87;;
78288;SDS011;67539;48.752;12.922;2023-04-25T00:17:01;5.40;;;5.00;;
78288;SDS011;67539;48.752;12.922;2023-04-25T00:19:31;4.80;;;3.97;;
78288;SDS011;67539;48.752;12.922;2023-04-25T00:22:01;5.20;;;4.70;;
78288;SDS011;67539;48.752;12.922;2023-04-25T00:24:29;5.53;;;4.80;;
78288;SDS011;67539;48.752;12.922;2023-04-25T00:26:57;4.80;;;4.40;;
78288;SDS011;67539;48.752;12.922;2023-04-25T00:29:25;4.10;;;3.80;;
78288;SDS011;67539;48.752;12.922;2023-04-25T00:31:55;4.03;;;3.73;;
78288;SDS011;67539;48.752;12.922;2023-04-25T00:34:23;4.13;;;3.83;;
78288;SDS011;67539;48.752;12.922;2023-04-25T00:36:51;4.33;;;3.93;;
78288;SDS011;67539;48.752;12.922;2023-04-25T00:39:19;4.47;;;4.17;;
78288;SDS011;67539;48.752;12.922;2023-04-25T00:41:47;5.03;;;4.37;;
78288;SDS011;67539;48.752;12.922;2023-04-25T00:44:19;4.40;;;4.10;;
78288;SDS011;67539;48.752;12.922;2023-04-25T00:46:48;4.60;;;4.20;;
78288;SDS011;67539;48.752;12.922;2023-04-25T00:49:18;4.17;;;3.87;;
78288;SDS011;67539;48.752;12.922;2023-04-25T00:51:46;5.00;;;4.60;;
78288;SDS011;67539;48.752;12.922;2023-04-25T00:54:15;5.13;;;4.63;;
78288;SDS011;67539;48.752;12.922;2023-04-25T00:56:44;6.80;;;4.87;;
78288;SDS011;67539;48.752;12.922;2023-04-25T00:59:12;5.80;;;5.20;;
78288;SDS011;67539;48.752;12.922;2023-04-25T01:01:42;7.33;;;5.37;;
78288;SDS011;67539;48.752;12.922;2023-04-25T01:04:11;5.20;;;4.73;;
78288;SDS011;67539;48.752;12.922;2023-04-25T01:06:41;5.83;;;5.20;;
78288;SDS011;67539;48.752;12.922;2023-04-25T01:09:10;5.43;;;4.80;;
78288;SDS011;67539;48.752;12.922;2023-04-25T01:11:38;4.73;;;4.33;;
78288;SDS011;67539;48.752;12.922;2023-04-25T01:14:07;6.00;;;5.50;;
78288;SDS011;67539;48.752;12.922;2023-04-25T01:16:35;12.17;;;5.80;;
78288;SDS011;67539;48.752;12.922;2023-04-25T01:19:05;5.63;;;5.10;;
78288;SDS011;67539;48.752;12.922;2023-04-25T01:21:39;5.40;;;4.87;;
78288;SDS011;67539;48.752;12.922;2023-04-25T01:24:08;5.27;;;4.77;;
78288;SDS011;67539;48.752;12.922;2023-04-25T01:26:39;5.43;;;4.93;;
78288;SDS011;67539;48.752;12.922;2023-04-25T01:29:10;5.43;;;4.90;;
78288;SDS011;67539;48.752;12.922;2023-04-25T01:31:39;5.60;;;5.10;;
78288;SDS011;67539;48.752;12.922;2023-04-25T01:34:08;6.67;;;5.00;;
78288;SDS011;67539;48.752;12.922;2023-04-25T01:36:36;6.13;;;5.47;;
78288;SDS011;67539;48.752;12.922;2023-04-25T01:39:06;5.90;;;5.37;;
78288;SDS011;67539;48.752;12.922;2023-04-25T01:41:35;6.80;;;6.10;;
78288;SDS011;67539;48.752;12.922;2023-04-25T01:44:04;7.43;;;6.73;;
78288;SDS011;67539;48.752;12.922;2023-04-25T01:46:32;6.20;;;5.60;;
78288;SDS011;67539;48.752;12.922;2023-04-25T01:49:01;5.80;;;5.20;;
78288;SDS011;67539;48.752;12.922;2023-04-25T01:51:29;7.97;;;5.70;;
78288;SDS011;67539;48.752;12.922;2023-04-25T01:53:58;6.17;;;5.57;;
78288;SDS011;67539;48.752;12.922;2023-04-25T01:56:31;6.47;;;5.80;;
78288;SDS011;67539;48.752;12.922;2023-04-25T01:59:01;7.23;;;5.57;;
78288;SDS011;67539;48.752;12.922;2023-04-25T02:01:43;8.40;;;6.60;;
78288;SDS011;67539;48.752;12.922;2023-04-25T02:04:20;7.27;;;6.57;;
78288;SDS011;67539;48.752;12.922;2023-04-25T02:06:48;7.00;;;6.30;;
78288;SDS011;67539;48.752;12.922;2023-04-25T02:09:16;7.27;;;6.57;;
78288;SDS011;67539;48.752;12.922;2023-04-25T02:11:51;5.90;;;5.40;;
78288;SDS011;67539;48.752;12.922;2023-04-25T02:14:40;6.30;;;5.70;;
78288;SDS011;67539;48.752;12.922;2023-04-25T02:17:31;6.23;;;5.63;;
78288;SDS011;67539;48.752;12.922;2023-04-25T02:19:59;6.03;;;5.53;;
78288;SDS011;67539;48.752;12.922;2023-04-25T02:22:29;6.10;;;5.50;;
78288;SDS011;67539;48.752;12.922;2023-04-25T02:24:57;6.37;;;5.77;;
78288;SDS011;67539;48.752;12.922;2023-04-25T02:27:27;5.53;;;5.03;;
78288;SDS011;67539;48.752;12.922;2023-04-25T02:29:55;6.63;;;5.70;;
78288;SDS011;67539;48.752;12.922;2023-04-25T02:32:24;6.40;;;5.90;;
78288;SDS011;67539;48.752;12.922;2023-04-25T02:34:52;6.03;;;5.50;;
78288;SDS011;67539;48.752;12.922;2023-04-25T02:37:20;6.53;;;5.90;;
78288;SDS011;67539;48.752;12.922;2023-04-25T02:39:48;6.50;;;5.90;;
78288;SDS011;67539;48.752;12.922;2023-04-25T02:42:17;6.30;;;5.70;;
78288;SDS011;67539;48.752;12.922;2023-04-25T02:44:47;6.10;;;5.60;;
78288;SDS011;67539;48.752;12.922;2023-04-25T02:47:15;6.30;;;5.20;;
78288;SDS011;67539;48.752;12.922;2023-04-25T02:49:43;6.10;;;5.50;;
78288;SDS011;67539;48.752;12.922;2023-04-25T02:52:11;5.30;;;4.80;;
78288;SDS011;67539;48.752;12.922;2023-04-25T02:54:41;6.30;;;5.67;;
78288;SDS011;67539;48.752;12.922;2023-04-25T02:57:09;5.03;;;4.63;;
78288;SDS011;67539;48.752;12.922;2023-04-25T02:59:37;6.40;;;5.37;;
78288;SDS011;67539;48.752;12.922;2023-04-25T03:02:08;5.20;;;4.77;;
78288;SDS011;67539;48.752;12.922;2023-04-25T03:04:36;7.43;;;5.60;;
78288;SDS011;67539;48.752;12.922;2023-04-25T03:07:04;6.50;;;5.90;;
78288;SDS011;67539;48.752;12.922;2023-04-25T03:09:32;7.30;;;6.60;;
78288;SDS011;67539;48.752;12.922;2023-04-25T03:12:01;6.30;;;5.80;;
78288;SDS011;67539;48.752;12.922;2023-04-25T03:14:31;6.27;;;5.70;;
78288;SDS011;67539;48.752;12.922;2023-04-25T03:17:00;6.50;;;5.67;;
78288;SDS011;67539;48.752;12.922;2023-04-25T03:19:30;6.80;;;6.20;;
78288;SDS011;67539;48.752;12.922;2023-04-25T03:21:58;8.10;;;7.03;;
78288;SDS011;67539;48.752;12.922;2023-04-25T03:24:27;7.50;;;6.80;;
78288;SDS011;67539;48.752;12.922;2023-04-25T03:26:55;7.67;;;6.27;;
78288;SDS011;67539;48.752;12.922;2023-04-25T03:29:24;7.33;;;6.63;;
78288;SDS011;67539;48.752;12.922;2023-04-25T03:31:55;6.57;;;5.90;;
78288;SDS011;67539;48.752;12.922;2023-04-25T03:34:23;7.37;;;6.60;;
78288;SDS011;67539;48.752;12.922;2023-04-25T03:36:53;7.33;;;6.67;;
78288;SDS011;67539;48.752;12.922;2023-04-25T03:39:22;7.57;;;6.43;;
78288;SDS011;67539;48.752;12.922;2023-04-25T03:41:51;7.17;;;6.57;;
78288;SDS011;67539;48.752;12.922;2023-04-25T03:44:20;6.23;;;5.73;;
78288;SDS011;67539;48.752;12.922;2023-04-25T03:46:48;7.20;;;6.10;;
78288;SDS011;67539;48.752;12.922;2023-04-25T03:49:16;7.87;;;5.80;;
78288;SDS011;67539;48.752;12.922;2023-04-25T03:52:02;6.13;;;5.53;;
78288;SDS011;67539;48.752;12.922;2023-04-25T03:54:37;5.67;;;5.17;;
78288;SDS011;67539;48.752;12.922;2023-04-25T03:57:11;7.17;;;6.30;;
78288;SDS011;67539;48.752;12.922;2023-04-25T03:59:41;5.27;;;4.87;;
78288;SDS011;67539;48.752;12.922;2023-04-25T04:02:12;5.50;;;5.00;;
78288;SDS011;67539;48.752;12.922;2023-04-25T04:04:41;6.83;;;6.10;;
78288;SDS011;67539;48.752;12.922;2023-04-25T04:07:12;5.93;;;5.43;;
78288;SDS011;67539;48.752;12.922;2023-04-25T04:09:44;6.67;;;5.97;;
78288;SDS011;67539;48.752;12.922;2023-04-25T04:12:17;7.00;;;6.37;;
78288;SDS011;67539;48.752;12.922;2023-04-25T04:14:46;6.50;;;5.47;;
78288;SDS011;67539;48.752;12.922;2023-04-25T04:17:14;6.67;;;6.07;;
78288;SDS011;67539;48.752;12.922;2023-04-25T04:19:43;6.20;;;5.60;;
78288;SDS011;67539;48.752;12.922;2023-04-25T04:22:16;6.13;;;5.63;;
78288;SDS011;67539;48.752;12.922;2023-04-25T04:24:46;7.00;;;6.20;;
78288;SDS011;67539;48.752;12.922;2023-04-25T04:27:21;6.80;;;6.20;;
78288;SDS011;67539;48.752;12.922;2023-04-25T04:29:53;7.03;;;6.30;;
78288;SDS011;67539;48.752;12.922;2023-04-25T04:32:29;6.63;;;6.03;;
78288;SDS011;67539;48.752;12.922;2023-04-25T04:35:00;6.40;;;5.83;;
78288;SDS011;67539;48.752;12.922;2023-04-25T04:37:30;7.47;;;6.77;;
78288;SDS011;67539;48.752;12.922;2023-04-25T04:40:00;7.30;;;6.20;;
78288;SDS011;67539;48.752;12.922;2023-04-25T04:42:42;8.90;;;6.23;;
78288;SDS011;67539;48.752;12.922;2023-04-25T04:45:24;7.47;;;6.23;;
78288;SDS011;67539;48.752;12.922;2023-04-25T04:48:08;6.57;;;6.00;;
78288;SDS011;67539;48.752;12.922;2023-04-25T04:51:04;6.37;;;5.80;;
78288;SDS011;67539;48.752;12.922;2023-04-25T04:53:49;7.30;;;6.60;;
78288;SDS011;67539;48.752;12.922;2023-04-25T04:56:27;6.20;;;5.70;;
78288;SDS011;67539;48.752;12.922;2023-04-25T04:59:16;7.10;;;6.00;;
78288;SDS011;67539;48.752;12.922;2023-04-25T05:02:07;7.43;;;6.17;;
78288;SDS011;67539;48.752;12.922;2023-04-25T05:05:08;7.80;;;7.07;;
78288;SDS011;67539;48.752;12.922;2023-04-25T05:07:55;8.60;;;6.80;;
78288;SDS011;67539;48.752;12.922;2023-04-25T05:10:52;9.60;;;8.60;;
78288;SDS011;67539;48.752;12.922;2023-04-25T05:13:33;11.50;;;8.53;;
78288;SDS011;67539;48.752;12.922;2023-04-25T05:16:19;9.27;;;8.33;;
78288;SDS011;67539;48.752;12.922;2023-04-25T05:18:54;10.87;;;8.00;;
78288;SDS011;67539;48.752;12.922;2023-04-25T05:21:32;13.60;;;10.93;;
78288;SDS011;67539;48.752;12.922;2023-04-25T05:24:23;9.13;;;7.97;;
78288;SDS011;67539;48.752;12.922;2023-04-25T05:27:11;9.63;;;8.07;;
78288;SDS011;67539;48.752;12.922;2023-04-25T05:30:12;15.77;;;11.00;;
78288;SDS011;67539;48.752;12.922;2023-04-25T05:32:56;9.20;;;8.20;;
78288;SDS011;67539;48.752;12.922;2023-04-25T05:35:25;8.60;;;7.60;;
78288;SDS011;67539;48.752;12.922;2023-04-25T05:37:54;7.57;;;6.80;;
78288;SDS011;67539;48.752;12.922;2023-04-25T05:40:34;8.93;;;7.57;;
78288;SDS011;67539;48.752;12.922;2023-04-25T05:43:21;7.63;;;6.93;;
78288;SDS011;67539;48.752;12.922;2023-04-25T05:45:58;7.87;;;7.07;;
78288;SDS011;67539;48.752;12.922;2023-04-25T05:48:40;7.67;;;6.97;;
78288;SDS011;67539;48.752;12.922;2023-04-25T05:51:27;8.30;;;7.17;;
78288;SDS011;67539;48.752;12.922;2023-04-25T05:54:24;7.43;;;6.73;;
78288;SDS011;67539;48.752;12.922;2023-04-25T05:56:55;8.13;;;7.33;;
78288;SDS011;67539;48.752;12.922;2023-04-25T05:59:25;9.20;;;7.90;;
78288;SDS011;67539;48.752;12.922;2023-04-25T06:01:54;7.23;;;6.53;;
78288;SDS011;67539;48.752;12.922;2023-04-25T06:04:22;7.03;;;6.40;;
78288;SDS011;67539;48.752;12.922;2023-04-25T06:06:53;7.20;;;6.60;;
78288;SDS011;67539;48.752;12.922;2023-04-25T06:09:21;7.90;;;7.10;;
78288;SDS011;67539;48.752;12.922;2023-04-25T06:11:52;6.03;;;5.47;;
78288;SDS011;67539;48.752;12.922;2023-04-25T06:14:20;6.50;;;5.90;;
78288;SDS011;67539;48.752;12.922;2023-04-25T06:16:56;7.43;;;6.73;;
78288;SDS011;67539;48.752;12.922;2023-04-25T06:19:25;6.33;;;5.73;;
78288;SDS011;67539;48.752;12.922;2023-04-25T06:21:53;7.07;;;6.40;;
78288;SDS011;67539;48.752;12.922;2023-04-25T06:24:22;7.33;;;6.47;;
78288;SDS011;67539;48.752;12.922;2023-04-25T06:26:50;6.80;;;6.10;;
78288;SDS011;67539;48.752;12.922;2023-04-25T06:29:19;7.07;;;5.77;;
78288;SDS011;67539;48.752;12.922;2023-04-25T06:31:47;6.23;;;5.63;;
78288;SDS011;67539;48.752;12.922;2023-04-25T06:34:18;6.53;;;6.03;;
78288;SDS011;67539;48.752;12.922;2023-04-25T06:36:46;7.33;;;6.40;;
78288;SDS011;67539;48.752;12.922;2023-04-25T06:39:15;7.10;;;6.40;;
78288;SDS011;67539;48.752;12.922;2023-04-25T06:41:43;6.73;;;6.03;;
78288;SDS011;67539;48.752;12.922;2023-04-25T06:44:34;7.07;;;6.10;;
78288;SDS011;67539;48.752;12.922;2023-04-25T06:47:05;6.20;;;5.60;;
78288;SDS011;67539;48.752;12.922;2023-04-25T06:49:35;7.33;;;6.37;;
78288;SDS011;67539;48.752;12.922;2023-04-25T06:52:04;11.47;;;5.97;;
78288;SDS011;67539;48.752;12.922;2023-04-25T06:54:32;6.53;;;5.93;;
78288;SDS011;67539;48.752;12.922;2023-04-25T06:57:08;6.30;;;5.70;;
78288;SDS011;67539;48.752;12.922;2023-04-25T06:59:36;5.17;;;4.77;;
78288;SDS011;67539;48.752;12.922;2023-04-25T07:02:04;6.67;;;6.07;;
78288;SDS011;67539;48.752;12.922;2023-04-25T07:04:34;6.70;;;6.13;;
78288;SDS011;67539;48.752;12.922;2023-04-25T07:07:03;5.80;;;5.30;;
78288;SDS011;67539;48.752;12.922;2023-04-25T07:09:37;6.00;;;5.50;;
78288;SDS011;67539;48.752;12.922;2023-04-25T07:12:06;6.43;;;5.83;;
78288;SDS011;67539;48.752;12.922;2023-04-25T07:14:34;6.23;;;5.63;;
78288;SDS011;67539;48.752;12.922;2023-04-25T07:17:02;6.90;;;5.70;;
78288;SDS011;67539;48.752;12.922;2023-04-25T07:19:34;5.40;;;4.90;;
78288;SDS011;67539;48.752;12.922;2023-04-25T07:22:05;5.73;;;5.23;;
78288;SDS011;67539;48.752;12.922;2023-04-25T07:24:34;5.73;;;5.20;;
78288;SDS011;67539;48.752;12.922;2023-04-25T07:27:03;6.40;;;5.40;;
78288;SDS011;67539;48.752;12.922;2023-04-25T07:29:51;6.20;;;5.60;;
78288;SDS011;67539;48.752;12.922;2023-04-25T07:32:21;7.97;;;5.20;;
78288;SDS011;67539;48.752;12.922;2023-04-25T07:34:51;7.80;;;5.30;;
78288;SDS011;67539;48.752;12.922;2023-04-25T07:37:19;5.70;;;5.23;;
78288;SDS011;67539;48.752;12.922;2023-04-25T07:39:59;6.60;;;5.90;;
78288;SDS011;67539;48.752;12.922;2023-04-25T07:42:28;8.23;;;6.10;;
78288;SDS011;67539;48.752;12.922;2023-04-25T07:44:56;6.27;;;5.67;;
78288;SDS011;67539;48.752;12.922;2023-04-25T07:47:24;7.23;;;5.30;;
78288;SDS011;67539;48.752;12.922;2023-04-25T07:49:54;5.73;;;5.23;;
78288;SDS011;67539;48.752;12.922;2023-04-25T07:52:22;5.23;;;4.80;;
78288;SDS011;67539;48.752;12.922;2023-04-25T07:54:59;5.50;;;5.00;;
78288;SDS011;67539;48.752;12.922;2023-04-25T07:57:39;5.70;;;4.77;;
78288;SDS011;67539;48.752;12.922;2023-04-25T08:00:08;6.20;;;5.70;;
78288;SDS011;67539;48.752;12.922;2023-04-25T08:02:43;5.40;;;4.90;;
78288;SDS011;67539;48.752;12.922;2023-04-25T08:05:16;6.50;;;5.90;;
78288;SDS011;67539;48.752;12.922;2023-04-25T08:07:53;8.80;;;7.80;;
78288;SDS011;67539;48.752;12.922;2023-04-25T08:10:23;6.33;;;5.33;;
78288;SDS011;67539;48.752;12.922;2023-04-25T08:12:51;5.60;;;5.20;;
78288;SDS011;67539;48.752;12.922;2023-04-25T08:15:20;5.07;;;4.67;;
78288;SDS011;67539;48.752;12.922;2023-04-25T08:17:48;6.40;;;5.70;;
78288;SDS011;67539;48.752;12.922;2023-04-25T08:20:18;5.10;;;4.70;;
78288;SDS011;67539;48.752;12.922;2023-04-25T08:22:48;5.43;;;5.00;;
78288;SDS011;67539;48.752;12.922;2023-04-25T08:25:36;6.20;;;5.60;;
78288;SDS011;67539;48.752;12.922;2023-04-25T08:28:06;11.17;;;6.90;;
78288;SDS011;67539;48.752;12.922;2023-04-25T08:30:34;6.60;;;6.00;;
78288;SDS011;67539;48.752;12.922;2023-04-25T08:33:04;6.63;;;5.90;;
78288;SDS011;67539;48.752;12.922;2023-04-25T08:35:51;11.73;;;5.97;;
78288;SDS011;67539;48.752;12.922;2023-04-25T08:38:19;6.27;;;5.63;;
78288;SDS011;67539;48.752;12.922;2023-04-25T08:40:49;5.07;;;4.67;;
78288;SDS011;67539;48.752;12.922;2023-04-25T08:43:19;8.33;;;4.13;;
78288;SDS011;67539;48.752;12.922;2023-04-25T08:45:47;6.13;;;5.00;;
78288;SDS011;67539;48.752;12.922;2023-04-25T08:48:34;8.13;;;6.47;;
78288;SDS011;67539;48.752;12.922;2023-04-25T08:51:05;7.33;;;5.40;;
78288;SDS011;67539;48.752;12.922;2023-04-25T08:53:35;9.10;;;5.93;;
78288;SDS011;67539;48.752;12.922;2023-04-25T08:56:04;11.00;;;8.10;;
78288;SDS011;67539;48.752;12.922;2023-04-25T08:58:35;6.87;;;6.00;;
78288;SDS011;67539;48.752;12.922;2023-04-25T09:01:04;4.33;;;4.03;;
78288;SDS011;67539;48.752;12.922;2023-04-25T09:03:41;4.77;;;4.27;;
78288;SDS011;67539;48.752;12.922;2023-04-25T09:06:12;3.50;;;3.30;;
78288;SDS011;67539;48.752;12.922;2023-04-25T09:08:42;4.67;;;4.20;;
78288;SDS011;67539;48.752;12.922;2023-04-25T09:11:10;3.57;;;3.27;;
78288;SDS011;67539;48.752;12.922;2023-04-25T09:13:41;4.10;;;3.70;;
78288;SDS011;67539;48.752;12.922;2023-04-25T09:16:22;3.60;;;3.40;;
78288;SDS011;67539;48.752;12.922;2023-04-25T09:19:11;3.60;;;3.30;;
78288;SDS011;67539;48.752;12.922;2023-04-25T09:22:12;3.50;;;3.20;;
78288;SDS011;67539;48.752;12.922;2023-04-25T09:24:42;5.67;;;3.23;;
78288;SDS011;67539;48.752;12.922;2023-04-25T09:27:13;4.00;;;3.50;;
78288;SDS011;67539;48.752;12.922;2023-04-25T09:29:48;4.60;;;3.90;;
78288;SDS011;67539;48.752;12.922;2023-04-25T09:32:25;3.30;;;3.10;;
78288;SDS011;67539;48.752;12.922;2023-04-25T09:34:56;4.20;;;3.60;;
78288;SDS011;67539;48.752;12.922;2023-04-25T09:37:29;4.07;;;3.77;;
78288;SDS011;67539;48.752;12.922;2023-04-25T09:40:21;2.17;;;1.97;;
78288;SDS011;67539;48.752;12.922;2023-04-25T09:43:01;1.90;;;1.80;;
78288;SDS011;67539;48.752;12.922;2023-04-25T09:45:29;1.90;;;1.80;;
78288;SDS011;67539;48.752;12.922;2023-04-25T09:47:59;1.90;;;1.80;;
78288;SDS011;67539;48.752;12.922;2023-04-25T09:50:36;3.93;;;3.10;;
78288;SDS011;67539;48.752;12.922;2023-04-25T09:53:14;2.70;;;2.50;;
78288;SDS011;67539;48.752;12.922;2023-04-25T09:56:02;1.43;;;1.33;;
78288;SDS011;67539;48.752;12.922;2023-04-25T09:58:33;1.50;;;1.40;;
78288;SDS011;67539;48.752;12.922;2023-04-25T10:01:02;1.70;;;1.60;;
78288;SDS011;67539;48.752;12.922;2023-04-25T10:03:40;2.03;;;1.60;;
78288;SDS011;67539;48.752;12.922;2023-04-25T10:06:19;1.73;;;1.63;;
78288;SDS011;67539;48.752;12.922;2023-04-25T10:08:50;1.80;;;1.70;;
78288;SDS011;67539;48.752;12.922;2023-04-25T10:11:22;2.50;;;2.30;;
78288;SDS011;67539;48.752;12.922;2023-04-25T10:13:53;3.90;;;3.60;;
78288;SDS011;67539;48.752;12.922;2023-04-25T10:16:22;6.03;;;4.27;;
78288;SDS011;67539;48.752;12.922;2023-04-25T10:18:52;5.07;;;4.63;;
78288;SDS011;67539;48.752;12.922;2023-04-25T10:21:21;4.27;;;4.07;;
78288;SDS011;67539;48.752;12.922;2023-04-25T10:23:50;3.83;;;3.53;;
78288;SDS011;67539;48.752;12.922;2023-04-25T10:26:19;7.97;;;7.07;;
78288;SDS011;67539;48.752;12.922;2023-04-25T10:28:54;6.57;;;5.97;;
78288;SDS011;67539;48.752;12.922;2023-04-25T10:31:24;7.60;;;6.80;;
78288;SDS011;67539;48.752;12.922;2023-04-25T10:33:53;6.40;;;5.90;;
78288;SDS011;67539;48.752;12.922;2023-04-25T10:36:22;6.57;;;6.07;;
78288;SDS011;67539;48.752;12.922;2023-04-25T10:38:54;4.37;;;4.00;;
78288;SDS011;67539;48.752;12.922;2023-04-25T10:41:24;5.20;;;4.80;;
78288;SDS011;67539;48.752;12.922;2023-04-25T10:43:58;6.00;;;5.33;;
78288;SDS011;67539;48.752;12.922;2023-04-25T10:46:28;6.27;;;5.67;;
78288;SDS011;67539;48.752;12.922;2023-04-25T10:48:58;4.70;;;4.40;;
78288;SDS011;67539;48.752;12.922;2023-04-25T10:51:27;4.30;;;4.00;;
78288;SDS011;67539;48.752;12.922;2023-04-25T10:54:17;3.20;;;3.00;;
78288;SDS011;67539;48.752;12.922;2023-04-25T10:56:48;5.47;;;3.30;;
78288;SDS011;67539;48.752;12.922;2023-04-25T10:59:16;4.00;;;3.70;;
78288;SDS011;67539;48.752;12.922;2023-04-25T11:01:46;6.60;;;4.37;;
78288;SDS011;67539;48.752;12.922;2023-04-25T11:04:20;4.70;;;4.40;;
78288;SDS011;67539;48.752;12.922;2023-04-25T11:07:07;4.53;;;3.77;;
78288;SDS011;67539;48.752;12.922;2023-04-25T11:09:54;4.47;;;4.10;;
78288;SDS011;67539;48.752;12.922;2023-04-25T11:12:22;5.27;;;4.80;;
78288;SDS011;67539;48.752;12.922;2023-04-25T11:14:57;5.00;;;4.60;;
78288;SDS011;67539;48.752;12.922;2023-04-25T11:17:27;5.13;;;4.67;;
78288;SDS011;67539;48.752;12.922;2023-04-25T11:19:56;4.60;;;4.20;;
78288;SDS011;67539;48.752;12.922;2023-04-25T11:22:26;4.50;;;4.10;;
78288;SDS011;67539;48.752;12.922;2023-04-25T11:24:56;4.50;;;4.20;;
78288;SDS011;67539;48.752;12.922;2023-04-25T11:27:24;5.50;;;5.10;;
78288;SDS011;67539;48.752;12.922;2023-04-25T11:29:52;4.57;;;4.17;;
78288;SDS011;67539;48.752;12.922;2023-04-25T11:32:20;3.73;;;3.50;;
78288;SDS011;67539;48.752;12.922;2023-04-25T11:34:50;3.27;;;3.00;;
78288;SDS011;67539;48.752;12.922;2023-04-25T11:37:19;3.80;;;3.50;;
78288;SDS011;67539;48.752;12.922;2023-04-25T11:39:48;2.87;;;2.67;;
78288;SDS011;67539;48.752;12.922;2023-04-25T11:42:18;3.30;;;3.10;;
78288;SDS011;67539;48.752;12.922;2023-04-25T11:44:46;3.00;;;2.80;;
78288;SDS011;67539;48.752;12.922;2023-04-25T11:47:14;3.07;;;2.87;;
78288;SDS011;67539;48.752;12.922;2023-04-25T11:49:42;2.70;;;2.60;;
78288;SDS011;67539;48.752;12.922;2023-04-25T11:52:11;3.10;;;2.90;;
78288;SDS011;67539;48.752;12.922;2023-04-25T11:54:39;2.93;;;2.83;;
78288;SDS011;67539;48.752;12.922;2023-04-25T11:57:07;2.90;;;2.70;;
78288;SDS011;67539;48.752;12.922;2023-04-25T11:59:37;2.73;;;2.63;;
78288;SDS011;67539;48.752;12.922;2023-04-25T12:02:05;3.47;;;3.13;;
78288;SDS011;67539;48.752;12.922;2023-04-25T12:04:33;3.30;;;3.10;;
78288;SDS011;67539;48.752;12.922;2023-04-25T12:07:02;4.10;;;3.80;;
78288;SDS011;67539;48.752;12.922;2023-04-25T12:09:31;4.43;;;4.10;;
78288;SDS011;67539;48.752;12.922;2023-04-25T12:12:01;4.00;;;3.57;;
78288;SDS011;67539;48.752;12.922;2023-04-25T12:14:30;4.40;;;4.10;;
78288;SDS011;67539;48.752;12.922;2023-04-25T12:17:01;1.10;;;1.10;;
78288;SDS011;67539;48.752;12.922;2023-04-25T12:19:35;1.23;;;1.20;;
78288;SDS011;67539;48.752;12.922;2023-04-25T12:22:18;1.23;;;1.23;;
78288;SDS011;67539;48.752;12.922;2023-04-25T12:24:47;3.10;;;2.80;;
78288;SDS011;67539;48.752;12.922;2023-04-25T12:27:16;2.43;;;2.33;;
78288;SDS011;67539;48.752;12.922;2023-04-25T12:29:52;2.10;;;2.00;;
78288;SDS011;67539;48.752;12.922;2023-04-25T12:32:23;2.80;;;2.70;;
78288;SDS011;67539;48.752;12.922;2023-04-25T12:34:52;9.30;;;6.70;;
78288;SDS011;67539;48.752;12.922;2023-04-25T12:37:20;1.73;;;1.63;;
78288;SDS011;67539;48.752;12.922;2023-04-25T12:39:48;2.30;;;2.20;;
78288;SDS011;67539;48.752;12.922;2023-04-25T12:42:17;2.00;;;1.90;;
78288;SDS011;67539;48.752;12.922;2023-04-25T12:44:45;4.40;;;4.10;;
78288;SDS011;67539;48.752;12.922;2023-04-25T12:47:13;2.20;;;2.10;;
78288;SDS011;67539;48.752;12.922;2023-04-25T12:49:43;2.90;;;2.70;;
78288;SDS011;67539;48.752;12.922;2023-04-25T12:52:11;3.97;;;3.77;;
78288;SDS011;67539;48.752;12.922;2023-04-25T12:54:39;2.83;;;2.63;;
78288;SDS011;67539;48.752;12.922;2023-04-25T12:57:07;2.67;;;2.57;;
78288;SDS011;67539;48.752;12.922;2023-04-25T12:59:35;2.90;;;2.70;;
78288;SDS011;67539;48.752;12.922;2023-04-25T13:02:03;3.07;;;2.87;;
78288;SDS011;67539;48.752;12.922;2023-04-25T13:04:32;3.23;;;3.03;;
78288;SDS011;67539;48.752;12.922;2023-04-25T13:07:01;4.27;;;3.97;;
78288;SDS011;67539;48.752;12.922;2023-04-25T13:09:30;3.40;;;3.07;;
78288;SDS011;67539;48.752;12.922;2023-04-25T13:11:58;2.57;;;2.37;;
78288;SDS011;67539;48.752;12.922;2023-04-25T13:14:26;2.50;;;2.40;;
78288;SDS011;67539;48.752;12.922;2023-04-25T13:16:54;2.60;;;2.37;;
78288;SDS011;67539;48.752;12.922;2023-04-25T13:19:22;2.53;;;2.40;;
78288;SDS011;67539;48.752;12.922;2023-04-25T13:21:51;2.20;;;2.10;;
78288;SDS011;67539;48.752;12.922;2023-04-25T13:24:21;2.13;;;2.03;;
78288;SDS011;67539;48.752;12.922;2023-04-25T13:26:49;1.70;;;1.60;;
78288;SDS011;67539;48.752;12.922;2023-04-25T13:29:17;2.00;;;1.90;;
78288;SDS011;67539;48.752;12.922;2023-04-25T13:31:45;1.60;;;1.50;;
78288;SDS011;67539;48.752;12.922;2023-04-25T13:34:13;2.37;;;1.80;;
78288;SDS011;67539;48.752;12.922;2023-04-25T13:36:41;1.87;;;1.77;;
78288;SDS011;67539;48.752;12.922;2023-04-25T13:39:09;1.87;;;1.77;;
78288;SDS011;67539;48.752;12.922;2023-04-25T13:41:39;2.50;;;1.80;;
78288;SDS011;67539;48.752;12.922;2023-04-25T13:44:07;3.07;;;1.83;;
78288;SDS011;67539;48.752;12.922;2023-04-25T13:46:36;2.00;;;1.90;;
78288;SDS011;67539;48.752;12.922;2023-04-25T13:49:07;2.10;;;1.90;;
78288;SDS011;67539;48.752;12.922;2023-04-25T13:51:38;1.80;;;1.70;;
78288;SDS011;67539;48.752;12.922;2023-04-25T13:54:07;2.13;;;2.03;;
78288;SDS011;67539;48.752;12.922;2023-04-25T13:56:35;2.20;;;2.10;;
78288;SDS011;67539;48.752;12.922;2023-04-25T13:59:04;1.93;;;1.83;;
78288;SDS011;67539;48.752;12.922;2023-04-25T14:01:33;6.43;;;5.43;;
78288;SDS011;67539;48.752;12.922;2023-04-25T14:04:02;2.10;;;2.00;;
78288;SDS011;67539;48.752;12.922;2023-04-25T14:06:31;1.80;;;1.70;;
78288;SDS011;67539;48.752;12.922;2023-04-25T14:08:59;2.77;;;2.67;;
78288;SDS011;67539;48.752;12.922;2023-04-25T14:11:28;2.60;;;2.40;;
78288;SDS011;67539;48.752;12.922;2023-04-25T14:13:56;2.13;;;2.03;;
78288;SDS011;67539;48.752;12.922;2023-04-25T14:16:25;2.30;;;1.80;;
78288;SDS011;67539;48.752;12.922;2023-04-25T14:18:53;2.70;;;2.57;;
78288;SDS011;67539;48.752;12.922;2023-04-25T14:21:22;2.47;;;2.33;;
78288;SDS011;67539;48.752;12.922;2023-04-25T14:23:50;3.20;;;1.87;;
78288;SDS011;67539;48.752;12.922;2023-04-25T14:26:19;2.20;;;2.10;;
78288;SDS011;67539;48.752;12.922;2023-04-25T14:28:47;2.70;;;2.57;;
78288;SDS011;67539;48.752;12.922;2023-04-25T14:31:16;4.13;;;2.60;;
78288;SDS011;67539;48.752;12.922;2023-04-25T14:33:45;2.67;;;2.50;;
78288;SDS011;67539;48.752;12.922;2023-04-25T14:36:13;2.43;;;2.30;;
78288;SDS011;67539;48.752;12.922;2023-04-25T14:38:41;4.40;;;3.00;;
78288;SDS011;67539;48.752;12.922;2023-04-25T14:41:10;2.93;;;2.73;;
78288;SDS011;67539;48.752;12.922;2023-04-25T14:43:38;2.90;;;2.67;;
78288;SDS011;67539;48.752;12.922;2023-04-25T14:46:07;3.87;;;2.77;;
78288;SDS011;67539;48.752;12.922;2023-04-25T14:48:36;5.00;;;3.70;;
78288;SDS011;67539;48.752;12.922;2023-04-25T14:51:05;3.17;;;2.97;;
78288;SDS011;67539;48.752;12.922;2023-04-25T14:53:34;3.03;;;2.83;;
78288;SDS011;67539;48.752;12.922;2023-04-25T14:56:02;3.47;;;3.10;;
78288;SDS011;67539;48.752;12.922;2023-04-25T14:58:31;3.10;;;2.80;;
78288;SDS011;67539;48.752;12.922;2023-04-25T15:00:59;2.90;;;2.70;;